General Aviation Weather

Text Reports

Enter one or more of the following location identifiers separated by a space:

Zip Code, Four-Character ICAO or Three-Character IATA airport codes.

METAR - Aviation Routine Weather Report
KRGK - Red Wing, Minnesota
Updated at 8:11 PM GMT on July 28, 2015 (3:11 PM CDT):
METAR KRGK 282011Z AUTO 24007KT 10SM CLR 31/22 A2981 RMK AO2 TSNO
TAF - Terminal Area Forecast
KRGK - Red Wing, Minnesota
Updated at 8:11 PM GMT on July 28, 2015 (3:11 PM CDT):
No TAF is currently available for this location.
Decoded:
No decoded TAF is available.
PIREP - Pilot Weather Report
KRGK - Red Wing, Minnesota
Updated at 8:11 PM GMT on July 28, 2015 (3:11 PM CDT):
No PIREP is currently available for this location.
AIRMET - Airmens Meteorological Information
KRGK - Red Wing, Minnesota
Updated at 8:11 PM GMT on July 28, 2015 (3:11 PM CDT):
No AIRMET is currently available for this location.
SIGMET - Significant Meteorological Information
KRGK - Red Wing, Minnesota
Updated at 8:11 PM GMT on July 28, 2015 (3:11 PM CDT):
No SIGMET is currently available for this location.
NOTAM - Notice to Airmen
KRGK - Red Wing, Minnesota
Updated at 8:11 PM GMT on July 28, 2015 (3:11 PM CDT):
No NOTAM is currently available for this location.
Forecast Area
KRGK - Red Wing, Minnesota
Updated at 8:11 PM GMT on July 28, 2015 (3:11 PM CDT):
No NOTAM is currently available for this location.
Aviation Weather Maps